Terminal Aerodrome Forecast
Issued by NWS Spokane, WA

Home | Current Version | Previous Version | Text Only | Print | Product List | Glossary On
Versions: 1 2 3 4 5 6 7 8 9 10 11 12 13 14 15 16 17 18 19 20 21 22 23 24 25 26 27 28 29 30 31 32 33 34 35 36 37 38 39 40 41 42 43 44 45 46 47 48 49 50
000
FTUS46 KOTX 240526
TAFGEG
TAF
KGEG 240526Z 2406/2506 11006KT P6SM FEW050 SCT150 BKN200
     FM240900 10007KT P6SM SCT050 BKN070 OVC090
     FM241200 10007KT P6SM -RA OVC050
     FM241600 17009KT 5SM -RA BR BKN025 OVC040
     FM242000 20009KT 5SM -RA BR SCT018 OVC025
     FM250000 19008KT P6SM VCSH SCT018 BKN030=

USA.gov is the U.S. government's official web portal to all federal, state and local government web resources and services.